Time;durP1;ratioP1;P1;durP2;ratioP2;P2;SDS_P1;SDS_P2;PMS_P1;PMS_P2;Temp;Humidity;BMP_temperature;BMP_pressure;BME280_temperature;BME280_humidity;BME280_pressure;Samples;Min_cycle;Max_cycle;Signal;HPM_P1;HPM_P2
2021/01/22 00:00:50;;;;;;;1.27;1.00;;;10.40;99.90;;;;;;5020947;28;20680;-74
2021/01/22 00:03:15;;;;;;;1.30;0.80;;;10.50;99.90;;;;;;5025250;28;20257;-74
2021/01/22 00:05:41;;;;;;;1.40;1.13;;;10.50;99.90;;;;;;5025416;28;20237;-74
2021/01/22 00:08:06;;;;;;;1.60;0.80;;;10.60;99.90;;;;;;5005364;28;20179;-74
2021/01/22 00:10:32;;;;;;;1.10;0.80;;;10.60;99.90;;;;;;5008802;28;20200;-74
2021/01/22 00:12:58;;;;;;;2.23;0.73;;;10.70;99.90;;;;;;5013127;28;20206;-74
2021/01/22 00:15:23;;;;;;;2.40;0.83;;;10.60;99.90;;;;;;5011547;28;20234;-74
2021/01/22 00:17:49;;;;;;;1.37;1.07;;;10.70;99.90;;;;;;5009898;28;20180;-75
2021/01/22 00:20:15;;;;;;;1.70;0.83;;;10.80;99.90;;;;;;5002274;28;20716;-75
2021/01/22 00:22:40;;;;;;;2.00;1.30;;;10.70;99.90;;;;;;5007566;28;20191;-74
2021/01/22 00:25:07;;;;;;;3.00;1.30;;;10.80;99.90;;;;;;5005561;28;20191;-75
2021/01/22 00:27:32;;;;;;;3.40;1.63;;;10.80;99.90;;;;;;5003358;28;20216;-74
2021/01/22 00:29:58;;;;;;;3.10;1.30;;;10.80;99.90;;;;;;5006377;28;21030;-74
2021/01/22 00:32:24;;;;;;;6.33;1.80;;;10.90;99.90;;;;;;5000993;28;20188;-75
2021/01/22 00:34:50;;;;;;;2.20;0.87;;;10.90;99.90;;;;;;5004613;28;20187;-74
2021/01/22 00:37:15;;;;;;;5.50;1.43;;;11.00;99.90;;;;;;5004294;28;20445;-74
2021/01/22 00:39:41;;;;;;;5.50;2.10;;;10.90;99.90;;;;;;4993996;28;20184;-75
2021/01/22 00:42:06;;;;;;;4.90;1.80;;;11.00;99.90;;;;;;5002626;28;20202;-74
2021/01/22 00:44:32;;;;;;;6.23;1.60;;;11.00;99.90;;;;;;5003773;28;20553;-74
2021/01/22 00:46:58;;;;;;;5.47;1.50;;;11.00;99.90;;;;;;5003133;28;20700;-75
2021/01/22 00:49:23;;;;;;;2.20;1.10;;;11.00;99.90;;;;;;5004215;28;20207;-74
2021/01/22 00:51:49;;;;;;;2.43;1.20;;;11.00;99.90;;;;;;5018840;28;20258;-74
2021/01/22 00:54:15;;;;;;;4.20;1.50;;;11.00;99.90;;;;;;5008485;28;20184;-75
2021/01/22 00:56:41;;;;;;;2.27;1.30;;;11.00;99.90;;;;;;5012448;28;20168;-75
2021/01/22 00:59:06;;;;;;;5.17;2.00;;;11.00;99.90;;;;;;5012384;28;20434;-75
2021/01/22 01:01:33;;;;;;;2.80;1.53;;;10.90;99.90;;;;;;5010374;28;20219;-75
2021/01/22 01:03:58;;;;;;;7.17;2.03;;;10.90;99.90;;;;;;5029663;28;20512;-75
2021/01/22 01:06:24;;;;;;;4.13;1.30;;;10.90;99.90;;;;;;5026751;28;20411;-75
2021/01/22 01:08:50;;;;;;;8.80;1.70;;;10.80;99.90;;;;;;5012105;28;20200;-74
2021/01/22 01:11:16;;;;;;;5.13;1.87;;;10.90;99.90;;;;;;5011906;28;20198;-74
2021/01/22 01:13:41;;;;;;;3.50;1.33;;;10.90;99.90;;;;;;5012431;28;20763;-74
2021/01/22 01:16:07;;;;;;;3.73;1.27;;;10.80;99.90;;;;;;5012137;28;20180;-74
2021/01/22 01:18:33;;;;;;;3.73;1.23;;;10.80;99.90;;;;;;5017082;28;20257;-74
2021/01/22 01:20:58;;;;;;;3.43;1.20;;;10.70;99.90;;;;;;5031503;28;20197;-74
2021/01/22 01:23:24;;;;;;;4.93;1.53;;;10.80;99.90;;;;;;5030572;28;20697;-75
2021/01/22 01:25:49;;;;;;;2.60;1.10;;;10.70;99.90;;;;;;5012997;28;20266;-75
2021/01/22 01:28:15;;;;;;;4.67;1.80;;;10.70;99.90;;;;;;5003681;28;20215;-74
2021/01/22 01:30:41;;;;;;;2.17;1.10;;;10.70;99.90;;;;;;5003810;28;20204;-74
2021/01/22 01:33:06;;;;;;;2.07;1.23;;;10.70;99.90;;;;;;5003999;28;20192;-75
2021/01/22 01:35:32;;;;;;;4.20;1.40;;;10.70;99.90;;;;;;5005386;28;20176;-75
2021/01/22 01:37:58;;;;;;;6.13;1.77;;;10.60;99.90;;;;;;5003703;28;20555;-74
2021/01/22 01:40:24;;;;;;;2.53;1.20;;;10.70;99.90;;;;;;5000507;28;20295;-74
2021/01/22 01:42:50;;;;;;;2.50;1.00;;;10.70;99.90;;;;;;5011822;28;20184;-75
2021/01/22 01:45:16;;;;;;;4.53;0.93;;;10.70;99.90;;;;;;5011321;28;20433;-75
2021/01/22 01:47:43;;;;;;;1.47;0.90;;;10.70;99.90;;;;;;5026001;28;20222;-74
2021/01/22 01:50:10;;;;;;;1.40;1.07;;;10.70;99.90;;;;;;5007276;28;20462;-75
2021/01/22 01:52:36;;;;;;;2.60;1.00;;;10.70;99.90;;;;;;5006870;28;20787;-74
2021/01/22 01:55:01;;;;;;;3.30;1.93;;;10.60;99.90;;;;;;5008936;28;20483;-74
2021/01/22 01:57:27;;;;;;;1.77;1.37;;;10.60;99.90;;;;;;5007362;28;20180;-74
2021/01/22 01:59:55;;;;;;;1.90;0.70;;;10.10;99.90;;;;;;5004767;28;20541;-74
2021/01/22 02:02:21;;;;;;;4.07;0.90;;;9.70;99.90;;;;;;5008447;28;20204;-74
2021/01/22 02:04:47;;;;;;;1.53;0.73;;;9.60;99.90;;;;;;5013132;28;20427;-74
2021/01/22 02:07:12;;;;;;;1.00;0.70;;;9.40;99.90;;;;;;5011167;28;20195;-74
2021/01/22 02:09:38;;;;;;;1.47;1.03;;;8.90;99.90;;;;;;5007175;28;20458;-75
2021/01/22 02:12:05;;;;;;;0.93;0.70;;;8.70;99.90;;;;;;5005296;28;20208;-74
2021/01/22 02:14:31;;;;;;;1.60;1.20;;;8.60;99.90;;;;;;5015150;28;20497;-74
2021/01/22 02:16:59;;;;;;;1.30;0.80;;;8.30;99.90;;;;;;5011154;28;20927;-75
2021/01/22 02:19:39;;;;;;;1.40;1.10;;;8.30;99.90;;;;;;5013364;28;20191;-74
2021/01/22 02:22:05;;;;;;;2.00;1.80;;;8.20;99.90;;;;;;5014910;28;20990;-75
2021/01/22 02:24:31;;;;;;;2.07;1.63;;;8.10;99.90;;;;;;5010517;28;20435;-74
2021/01/22 02:27:02;;;;;;;3.10;1.43;;;7.90;99.90;;;;;;5014807;28;20191;-74
2021/01/22 02:29:28;;;;;;;1.17;1.07;;;7.80;99.90;;;;;;5029298;28;20458;-74
2021/01/22 02:31:55;;;;;;;2.47;1.07;;;7.80;99.90;;;;;;5014611;28;20909;-75
2021/01/22 02:34:26;;;;;;;2.10;1.90;;;7.70;99.90;;;;;;5012705;28;20802;-74
2021/01/22 02:36:57;;;;;;;2.43;2.23;;;7.70;99.90;;;;;;5012608;28;20497;-74
2021/01/22 02:39:35;;;;;;;1.87;1.77;;;7.40;99.90;;;;;;5013583;28;20438;-74
2021/01/22 02:42:03;;;;;;;2.17;2.07;;;7.20;99.90;;;;;;5013118;28;20460;-75
2021/01/22 02:44:30;;;;;;;3.03;2.73;;;6.80;99.90;;;;;;5014009;28;20448;-74
2021/01/22 02:46:57;;;;;;;2.43;2.23;;;6.70;99.90;;;;;;5012562;28;20561;-74
2021/01/22 02:49:22;;;;;;;3.27;2.97;;;6.50;99.90;;;;;;5006126;28;20860;-74
2021/01/22 02:51:48;;;;;;;2.80;2.60;;;6.50;99.90;;;;;;5012253;28;20451;-74
2021/01/22 02:54:13;;;;;;;3.00;2.80;;;6.40;99.90;;;;;;5013685;28;20164;-74
2021/01/22 02:57:11;;;;;;;1.87;1.77;;;6.20;99.90;;;;;;5031166;28;20237;-74
2021/01/22 02:59:50;;;;;;;3.40;2.27;;;6.10;99.90;;;;;;4993453;28;20328;-74
2021/01/22 03:02:25;;;;;;;7.43;6.50;;;6.00;99.90;;;;;;5047967;28;20503;-74
2021/01/22 03:04:52;;;;;;;3.20;3.00;;;6.00;99.90;;;;;;5012779;28;20434;-74
2021/01/22 03:07:58;;;;;;;3.10;2.90;;;6.00;99.90;;;;;;5013553;28;21125;-74
2021/01/22 03:10:26;;;;;;;3.70;3.40;;;6.00;99.90;;;;;;4979264;28;21135;-74
2021/01/22 03:12:53;;;;;;;3.77;3.43;;;5.90;99.90;;;;;;5014342;28;20411;-74
2021/01/22 03:15:21;;;;;;;3.73;3.43;;;5.80;99.90;;;;;;5015414;28;20530;-75
2021/01/22 03:17:47;;;;;;;3.73;3.30;;;5.80;99.90;;;;;;5012164;28;20471;-74
2021/01/22 03:20:15;;;;;;;3.73;3.43;;;5.80;99.90;;;;;;5006185;28;20450;-74
2021/01/22 03:22:41;;;;;;;3.87;3.57;;;5.80;99.90;;;;;;5018357;28;20435;-74
2021/01/22 03:25:09;;;;;;;4.03;3.73;;;5.90;99.90;;;;;;5010217;28;20454;-74
2021/01/22 03:27:35;;;;;;;4.53;4.13;;;5.70;99.90;;;;;;5021609;28;20176;-74
2021/01/22 03:30:01;;;;;;;4.80;4.40;;;5.80;99.90;;;;;;5012230;28;20466;-74
2021/01/22 03:32:26;;;;;;;4.13;3.83;;;5.90;99.90;;;;;;5026039;28;20204;-74
2021/01/22 03:34:52;;;;;;;5.20;4.80;;;5.90;99.90;;;;;;5011787;28;20176;-75
2021/01/22 03:37:18;;;;;;;5.10;4.70;;;5.90;99.90;;;;;;5013313;28;20168;-74
2021/01/22 03:39:43;;;;;;;6.47;5.87;;;5.80;99.90;;;;;;5016474;28;20183;-74
2021/01/22 03:42:09;;;;;;;7.27;6.67;;;5.70;99.90;;;;;;5031452;28;20200;-74
2021/01/22 03:44:36;;;;;;;7.20;6.47;;;5.60;99.90;;;;;;5009112;28;20234;-74
2021/01/22 03:47:02;;;;;;;7.67;6.87;;;5.60;99.90;;;;;;5011221;28;20180;-74
2021/01/22 03:49:28;;;;;;;7.50;6.90;;;5.50;99.90;;;;;;5010899;28;20494;-74
2021/01/22 03:51:54;;;;;;;8.30;7.40;;;5.40;99.90;;;;;;5012230;28;20459;-74
2021/01/22 03:54:19;;;;;;;7.57;6.77;;;5.50;99.90;;;;;;5004897;28;20184;-74
2021/01/22 03:56:45;;;;;;;8.20;6.77;;;5.40;99.90;;;;;;5011195;28;20251;-74
2021/01/22 03:59:10;;;;;;;9.40;8.07;;;5.40;99.90;;;;;;5005734;28;20207;-74
2021/01/22 04:01:36;;;;;;;6.57;5.97;;;5.40;99.90;;;;;;5012480;28;20629;-74
2021/01/22 04:04:02;;;;;;;9.33;6.83;;;5.40;99.90;;;;;;5011994;28;20259;-74
2021/01/22 04:06:27;;;;;;;6.37;5.10;;;5.30;99.90;;;;;;5010646;28;20192;-74
2021/01/22 04:08:53;;;;;;;19.57;13.07;;;5.30;99.90;;;;;;5006080;28;20197;-75
2021/01/22 04:11:19;;;;;;;10.63;9.10;;;5.40;99.90;;;;;;5003897;28;20203;-74
2021/01/22 04:13:45;;;;;;;6.27;5.07;;;5.40;99.90;;;;;;5003911;28;20175;-74
2021/01/22 04:16:12;;;;;;;5.23;4.73;;;5.20;99.90;;;;;;5004189;28;20438;-74
2021/01/22 04:18:39;;;;;;;4.70;3.87;;;5.20;99.90;;;;;;5008633;28;20663;-74
2021/01/22 04:21:05;;;;;;;4.30;3.90;;;5.20;99.90;;;;;;5044211;28;20438;-74
2021/01/22 04:23:30;;;;;;;6.10;4.63;;;5.20;99.90;;;;;;5010877;28;21009;-74
2021/01/22 04:25:56;;;;;;;5.87;4.40;;;5.30;99.90;;;;;;5012853;28;20919;-74
2021/01/22 04:28:22;;;;;;;5.47;4.20;;;5.20;99.90;;;;;;5011386;28;20210;-74
2021/01/22 04:30:47;;;;;;;6.07;4.53;;;5.10;99.90;;;;;;5012216;28;20195;-74
2021/01/22 04:33:13;;;;;;;4.40;4.00;;;5.10;99.90;;;;;;5010902;28;20184;-74
2021/01/22 04:35:38;;;;;;;5.73;5.13;;;5.10;99.90;;;;;;5012504;28;20165;-74
2021/01/22 04:38:04;;;;;;;5.83;4.60;;;5.10;99.90;;;;;;5012236;28;20180;-74
2021/01/22 04:40:30;;;;;;;6.10;4.30;;;5.10;99.90;;;;;;5011933;28;20200;-74
2021/01/22 04:42:56;;;;;;;4.47;4.07;;;5.10;99.90;;;;;;5012649;28;20600;-74
2021/01/22 04:45:22;;;;;;;4.57;3.83;;;5.10;99.90;;;;;;5012336;28;20616;-75
2021/01/22 04:47:48;;;;;;;5.20;4.40;;;5.20;99.90;;;;;;5012566;28;20419;-74
2021/01/22 04:50:16;;;;;;;5.43;4.93;;;5.10;99.90;;;;;;5012005;28;20196;-74
2021/01/22 04:52:43;;;;;;;5.83;4.60;;;5.10;99.90;;;;;;5011036;28;20494;-74
2021/01/22 04:55:12;;;;;;;4.33;3.93;;;5.10;99.90;;;;;;5012509;28;20414;-74
2021/01/22 04:57:43;;;;;;;8.20;5.47;;;5.10;99.90;;;;;;5011830;28;20820;-74
2021/01/22 05:00:11;;;;;;;5.57;4.33;;;5.10;99.90;;;;;;5012075;28;20399;-74
2021/01/22 05:02:37;;;;;;;7.00;5.10;;;5.10;99.90;;;;;;5011941;28;20423;-74
2021/01/22 05:05:05;;;;;;;5.97;4.23;;;5.10;99.90;;;;;;5012204;28;20411;-74
2021/01/22 05:07:30;;;;;;;7.23;4.57;;;5.10;99.90;;;;;;5027453;28;20487;-75
2021/01/22 05:09:57;;;;;;;9.50;5.40;;;5.10;99.90;;;;;;5026619;28;20554;-74
2021/01/22 05:12:23;;;;;;;5.47;4.40;;;5.20;99.90;;;;;;5012029;28;20287;-74
2021/01/22 05:14:48;;;;;;;6.07;5.03;;;5.20;99.90;;;;;;5012077;28;20914;-75
2021/01/22 05:17:14;;;;;;;11.57;5.20;;;5.30;99.90;;;;;;5013085;28;20423;-74
2021/01/22 05:19:43;;;;;;;7.07;5.10;;;5.20;99.90;;;;;;5018082;28;20547;-74
2021/01/22 05:22:14;;;;;;;6.10;4.70;;;5.30;99.90;;;;;;5005154;28;20563;-75
2021/01/22 05:24:40;;;;;;;15.50;11.47;;;5.20;99.90;;;;;;5017246;28;20446;-74
2021/01/22 05:27:08;;;;;;;10.10;5.70;;;5.30;99.90;;;;;;5018647;28;20944;-74
2021/01/22 05:29:36;;;;;;;7.50;5.40;;;5.30;99.90;;;;;;5016926;28;20458;-75
2021/01/22 05:32:04;;;;;;;6.53;5.23;;;5.30;99.90;;;;;;5018288;28;20954;-74
2021/01/22 05:34:47;;;;;;;6.40;5.43;;;5.30;99.90;;;;;;5018812;28;20458;-74
2021/01/22 05:37:12;;;;;;;8.60;5.90;;;5.30;99.90;;;;;;5018542;28;20407;-74
2021/01/22 05:39:38;;;;;;;8.90;5.90;;;5.20;99.90;;;;;;5017968;28;20427;-74
2021/01/22 05:42:04;;;;;;;7.97;5.67;;;5.10;99.90;;;;;;5018137;28;20215;-75
2021/01/22 05:44:30;;;;;;;12.03;5.47;;;5.10;99.90;;;;;;5017630;28;20187;-74
2021/01/22 05:47:06;;;;;;;8.20;6.03;;;5.20;99.90;;;;;;5015635;28;20172;-74
2021/01/22 05:49:32;;;;;;;10.10;7.93;;;5.20;99.90;;;;;;5014377;28;20457;-74
2021/01/22 05:51:58;;;;;;;19.73;7.63;;;5.10;99.90;;;;;;5013615;28;20453;-74
2021/01/22 05:54:36;;;;;;;8.50;6.40;;;5.20;99.90;;;;;;5016932;28;20393;-74
2021/01/22 05:57:03;;;;;;;9.23;6.60;;;5.20;99.90;;;;;;5014652;28;20180;-74
2021/01/22 05:59:29;;;;;;;6.53;5.50;;;5.20;99.90;;;;;;4998510;28;20458;-75
2021/01/22 06:01:54;;;;;;;10.40;7.00;;;5.20;99.90;;;;;;5005829;28;21034;-74
2021/01/22 06:04:20;;;;;;;9.23;6.80;;;5.20;99.90;;;;;;5016985;28;20430;-74
2021/01/22 06:06:46;;;;;;;8.40;6.43;;;5.20;99.90;;;;;;5016952;28;20176;-74
2021/01/22 06:09:12;;;;;;;8.37;7.30;;;5.20;99.90;;;;;;5017974;28;20200;-75
2021/01/22 06:11:40;;;;;;;13.00;7.37;;;5.20;99.90;;;;;;5017298;28;20302;-74
2021/01/22 06:14:07;;;;;;;10.90;6.83;;;5.20;99.90;;;;;;5017034;28;20172;-75
2021/01/22 06:16:35;;;;;;;8.43;6.90;;;5.10;99.90;;;;;;5032379;28;20499;-74
2021/01/22 06:19:09;;;;;;;8.80;6.00;;;5.20;99.90;;;;;;5018278;28;20441;-74
2021/01/22 06:21:50;;;;;;;7.90;6.60;;;5.30;99.90;;;;;;5015472;28;20457;-74
2021/01/22 06:24:17;;;;;;;11.50;6.60;;;5.30;99.90;;;;;;5018260;28;20429;-74
2021/01/22 06:26:43;;;;;;;7.20;5.77;;;5.40;99.90;;;;;;5015227;28;20858;-74
2021/01/22 06:29:10;;;;;;;5.40;4.90;;;5.40;99.90;;;;;;5012949;28;20486;-74
2021/01/22 06:31:41;;;;;;;5.53;4.90;;;5.60;99.90;;;;;;5013070;28;20811;-74
2021/01/22 06:34:07;;;;;;;6.17;4.70;;;5.50;99.90;;;;;;5014813;28;20423;-74
2021/01/22 06:36:33;;;;;;;5.83;5.23;;;5.40;99.90;;;;;;5014501;28;20473;-74
2021/01/22 06:39:02;;;;;;;6.00;5.27;;;5.50;99.90;;;;;;5028053;28;20434;-74
2021/01/22 06:41:29;;;;;;;7.50;5.80;;;5.50;99.90;;;;;;5014107;28;20192;-74
2021/01/22 06:43:58;;;;;;;7.00;5.23;;;5.60;99.90;;;;;;5010065;28;20431;-75
2021/01/22 06:46:29;;;;;;;5.70;4.80;;;5.50;99.90;;;;;;5013399;28;20994;-75
2021/01/22 06:48:59;;;;;;;7.30;4.63;;;5.60;99.90;;;;;;5013046;28;20459;-75
2021/01/22 06:51:28;;;;;;;7.57;5.80;;;5.60;99.90;;;;;;5007500;28;20448;-75
2021/01/22 06:54:18;;;;;;;6.20;4.70;;;5.60;99.90;;;;;;5019702;28;20499;-75
2021/01/22 06:56:47;;;;;;;5.57;4.83;;;5.60;99.90;;;;;;5011677;28;20477;-75
2021/01/22 06:59:30;;;;;;;5.27;4.37;;;5.80;99.90;;;;;;5014526;28;20441;-75
2021/01/22 07:01:56;;;;;;;6.20;3.97;;;5.80;99.90;;;;;;5029316;28;20439;-75
2021/01/22 07:04:28;;;;;;;6.13;3.30;;;5.80;99.90;;;;;;5010082;28;20438;-75
2021/01/22 07:06:56;;;;;;;3.40;3.10;;;5.90;99.90;;;;;;5030392;28;20442;-75
2021/01/22 07:09:46;;;;;;;2.97;2.63;;;5.90;99.90;;;;;;5030509;28;20533;-75
2021/01/22 07:12:16;;;;;;;4.53;3.47;;;5.80;99.90;;;;;;5006611;28;20827;-75
2021/01/22 07:14:47;;;;;;;2.60;2.40;;;5.90;99.90;;;;;;5014149;28;20399;-75
2021/01/22 07:17:29;;;;;;;3.83;2.80;;;5.80;99.90;;;;;;5009575;28;20431;-75
2021/01/22 07:20:01;;;;;;;2.83;2.47;;;5.70;99.90;;;;;;5011750;28;20455;-75
2021/01/22 07:22:29;;;;;;;3.40;2.90;;;5.70;99.90;;;;;;5013134;28;20765;-75
2021/01/22 07:24:57;;;;;;;2.97;2.10;;;5.70;99.90;;;;;;5009274;28;20444;-75
2021/01/22 07:27:37;;;;;;;3.50;2.07;;;5.70;99.90;;;;;;5003617;28;20443;-75
2021/01/22 07:30:09;;;;;;;3.23;2.43;;;5.60;99.90;;;;;;5011522;28;20450;-75
2021/01/22 07:32:35;;;;;;;2.93;2.73;;;5.70;99.90;;;;;;5011317;28;20450;-75
2021/01/22 07:35:01;;;;;;;2.77;2.30;;;5.60;99.90;;;;;;5012424;28;20427;-75
2021/01/22 07:37:35;;;;;;;4.23;2.20;;;5.60;99.90;;;;;;5010288;28;20234;-75
2021/01/22 07:40:06;;;;;;;3.10;2.10;;;5.60;99.90;;;;;;5012398;28;20485;-75
2021/01/22 07:42:32;;;;;;;2.13;1.77;;;5.60;99.90;;;;;;5013136;28;20430;-75
2021/01/22 07:45:09;;;;;;;2.70;2.30;;;5.70;99.90;;;;;;5011651;28;20435;-74
2021/01/22 07:47:36;;;;;;;2.20;1.93;;;5.80;99.90;;;;;;5012287;28;20175;-75
2021/01/22 07:50:07;;;;;;;2.00;1.60;;;5.60;99.90;;;;;;5010916;28;20459;-74
2021/01/22 07:52:36;;;;;;;2.13;1.73;;;5.70;99.90;;;;;;5011541;28;20795;-75
2021/01/22 07:55:02;;;;;;;2.13;1.70;;;5.70;99.90;;;;;;5012597;28;20458;-75
2021/01/22 07:57:28;;;;;;;3.00;1.87;;;5.80;99.90;;;;;;5015250;28;20924;-75
2021/01/22 07:59:57;;;;;;;1.97;1.70;;;5.80;99.90;;;;;;5028288;28;20530;-75
2021/01/22 08:02:24;;;;;;;1.53;1.40;;;5.70;99.90;;;;;;5012467;28;20473;-75
2021/01/22 08:04:58;;;;;;;2.97;1.53;;;5.80;99.90;;;;;;5014147;28;20431;-75
2021/01/22 08:07:40;;;;;;;2.30;1.27;;;5.90;99.90;;;;;;5013364;28;20428;-75
2021/01/22 08:10:11;;;;;;;4.20;1.30;;;6.00;99.90;;;;;;5010091;28;20450;-75
2021/01/22 08:12:38;;;;;;;1.50;1.30;;;6.00;99.90;;;;;;5014654;28;20391;-74
2021/01/22 08:15:18;;;;;;;1.40;1.23;;;6.00;99.90;;;;;;5024454;28;20536;-75
2021/01/22 08:17:48;;;;;;;2.37;1.47;;;6.00;99.90;;;;;;5007330;28;20845;-75
2021/01/22 08:20:15;;;;;;;2.97;1.00;;;6.10;99.90;;;;;;5027620;28;20816;-75
2021/01/22 08:22:42;;;;;;;1.73;1.20;;;6.10;99.90;;;;;;5013830;28;20439;-75
2021/01/22 08:25:09;;;;;;;1.37;1.03;;;6.00;99.90;;;;;;5012940;28;20439;-75
2021/01/22 08:27:34;;;;;;;6.20;1.30;;;6.00;99.90;;;;;;5013858;28;20439;-75
2021/01/22 08:30:00;;;;;;;1.00;0.90;;;6.00;99.90;;;;;;5010955;28;20508;-75
2021/01/22 08:32:28;;;;;;;6.20;1.10;;;6.10;99.90;;;;;;5013433;28;21073;-75
2021/01/22 08:34:55;;;;;;;1.43;1.10;;;6.10;99.90;;;;;;5013640;28;20526;-75
2021/01/22 08:37:21;;;;;;;2.70;1.37;;;6.10;99.90;;;;;;5014833;28;20403;-76
2021/01/22 08:39:48;;;;;;;1.97;1.47;;;6.10;99.90;;;;;;5012001;28;20431;-76
2021/01/22 08:42:14;;;;;;;2.63;1.70;;;6.20;99.90;;;;;;5013462;28;20470;-75
2021/01/22 08:44:58;;;;;;;2.70;1.47;;;6.20;99.90;;;;;;5010174;28;20786;-75
2021/01/22 08:47:25;;;;;;;2.30;1.23;;;6.40;99.90;;;;;;5028575;28;20474;-75
2021/01/22 08:50:04;;;;;;;2.00;1.60;;;6.30;99.90;;;;;;5007677;28;20855;-75
2021/01/22 08:52:30;;;;;;;2.17;1.20;;;6.40;99.90;;;;;;5012068;28;20434;-75
2021/01/22 08:54:57;;;;;;;1.20;1.10;;;6.50;99.90;;;;;;5012205;28;20457;-75
2021/01/22 08:57:25;;;;;;;2.13;1.50;;;6.40;99.90;;;;;;5011634;28;20809;-75
2021/01/22 08:59:53;;;;;;;1.10;1.00;;;6.40;99.90;;;;;;5013660;28;20437;-75
2021/01/22 09:02:43;;;;;;;2.00;1.50;;;6.50;99.90;;;;;;5026340;28;20466;-75
2021/01/22 09:05:13;;;;;;;1.70;1.60;;;6.60;99.90;;;;;;5013941;28;20430;-75
2021/01/22 09:07:40;;;;;;;1.63;1.17;;;6.70;99.90;;;;;;5013097;28;20836;-75
2021/01/22 09:10:26;;;;;;;2.33;1.40;;;6.80;99.90;;;;;;5010251;28;20831;-75
2021/01/22 09:12:52;;;;;;;1.57;1.27;;;6.80;99.90;;;;;;5004382;28;20501;-75
2021/01/22 09:15:18;;;;;;;2.30;1.20;;;6.80;99.90;;;;;;5006362;28;20436;-75
2021/01/22 09:17:50;;;;;;;2.07;1.57;;;6.60;99.90;;;;;;4995643;28;20176;-76
2021/01/22 09:20:20;;;;;;;1.73;1.43;;;6.60;99.90;;;;;;5008852;28;20465;-76
2021/01/22 09:22:51;;;;;;;1.30;1.20;;;6.80;99.90;;;;;;5010186;28;20442;-75
2021/01/22 09:25:20;;;;;;;6.10;1.50;;;6.80;99.90;;;;;;5011231;28;20431;-76
2021/01/22 09:27:47;;;;;;;1.70;1.40;;;6.90;99.90;;;;;;5010746;28;20462;-75
2021/01/22 09:30:18;;;;;;;1.80;1.70;;;7.00;99.90;;;;;;5008748;28;20909;-76
2021/01/22 09:32:52;;;;;;;1.47;1.10;;;7.10;99.90;;;;;;5011973;28;20415;-76
2021/01/22 09:35:18;;;;;;;1.90;1.73;;;7.00;99.90;;;;;;5010644;28;20507;-75
2021/01/22 09:37:44;;;;;;;3.00;1.60;;;7.20;99.90;;;;;;5011806;28;20419;-76
2021/01/22 09:40:11;;;;;;;5.10;2.50;;;7.40;99.90;;;;;;5009018;28;20819;-75
2021/01/22 09:42:37;;;;;;;3.40;3.10;;;7.50;99.90;;;;;;5009897;28;20848;-76
2021/01/22 09:45:08;;;;;;;3.77;1.70;;;7.60;99.90;;;;;;5025619;28;20521;-76
2021/01/22 09:47:33;;;;;;;3.47;2.90;;;7.70;99.90;;;;;;5010600;28;20940;-75
2021/01/22 09:49:59;;;;;;;4.40;3.63;;;7.50;99.90;;;;;;5009354;28;20474;-75
2021/01/22 09:52:25;;;;;;;7.03;5.90;;;7.20;99.90;;;;;;5010921;28;20180;-76
2021/01/22 09:54:50;;;;;;;3.90;3.27;;;7.10;99.90;;;;;;5009170;28;20177;-75
2021/01/22 09:57:16;;;;;;;2.80;1.70;;;7.00;99.90;;;;;;5010061;28;20326;-76
2021/01/22 09:59:42;;;;;;;2.80;2.00;;;6.90;99.90;;;;;;5008840;28;20181;-76
2021/01/22 10:02:08;;;;;;;2.50;1.67;;;7.00;99.90;;;;;;5010326;28;20204;-75
2021/01/22 10:04:35;;;;;;;1.70;1.43;;;7.20;99.90;;;;;;4995348;28;20419;-75
2021/01/22 10:07:01;;;;;;;1.67;1.57;;;7.40;99.90;;;;;;5013804;28;20429;-75
2021/01/22 10:09:27;;;;;;;1.73;1.60;;;7.50;99.90;;;;;;5014714;28;20462;-75
2021/01/22 10:11:52;;;;;;;3.70;1.83;;;7.60;99.90;;;;;;5015204;28;20446;-75
2021/01/22 10:14:18;;;;;;;3.30;1.73;;;7.60;99.90;;;;;;4995756;28;20173;-75
2021/01/22 10:16:44;;;;;;;4.00;2.47;;;7.40;99.90;;;;;;5006962;28;20184;-75
2021/01/22 10:19:09;;;;;;;6.50;2.20;;;7.50;99.90;;;;;;5011187;28;20184;-75
2021/01/22 10:21:35;;;;;;;14.33;2.20;;;7.60;99.90;;;;;;5027699;28;20232;-76
2021/01/22 10:24:01;;;;;;;4.33;2.67;;;7.70;99.90;;;;;;5004152;28;20173;-75
2021/01/22 10:26:27;;;;;;;7.27;2.03;;;7.90;99.90;;;;;;5012368;28;20446;-75
2021/01/22 10:28:52;;;;;;;4.13;3.13;;;8.00;99.90;;;;;;5014075;28;20195;-75
2021/01/22 10:31:20;;;;;;;3.73;2.13;;;8.00;99.90;;;;;;5012858;28;20211;-75
2021/01/22 10:33:46;;;;;;;3.83;1.67;;;8.30;99.90;;;;;;5013826;28;20451;-75
2021/01/22 10:36:14;;;;;;;2.70;2.20;;;8.50;99.90;;;;;;5012457;28;20873;-75
2021/01/22 10:38:39;;;;;;;4.77;2.40;;;8.60;99.90;;;;;;5014413;28;20459;-75
2021/01/22 10:41:05;;;;;;;11.97;2.67;;;8.40;99.90;;;;;;5010762;28;20482;-75
2021/01/22 10:43:31;;;;;;;3.90;3.40;;;8.60;99.90;;;;;;5013659;28;20188;-75
2021/01/22 10:45:57;;;;;;;13.87;6.97;;;8.30;99.90;;;;;;5013929;28;20173;-75
2021/01/22 10:48:23;;;;;;;5.23;3.00;;;8.10;99.90;;;;;;5020031;28;20593;-75
2021/01/22 10:50:50;;;;;;;6.93;3.93;;;8.00;99.90;;;;;;5019643;28;20473;-75
2021/01/22 10:53:17;;;;;;;9.50;2.73;;;8.10;99.90;;;;;;5014426;28;20876;-75
2021/01/22 10:55:43;;;;;;;5.07;2.90;;;8.10;99.90;;;;;;5013361;28;20469;-75
2021/01/22 10:58:09;;;;;;;6.50;2.90;;;7.90;99.90;;;;;;5015407;28;20497;-75
2021/01/22 11:00:34;;;;;;;4.10;2.60;;;8.20;99.90;;;;;;5013805;28;20501;-75
2021/01/22 11:03:01;;;;;;;4.17;3.50;;;8.10;99.90;;;;;;5015932;28;20200;-75
2021/01/22 11:05:27;;;;;;;4.57;2.70;;;8.00;99.90;;;;;;5014577;28;20544;-75
2021/01/22 11:07:53;;;;;;;6.23;2.53;;;8.40;99.90;;;;;;5015787;28;20411;-75
2021/01/22 11:10:19;;;;;;;3.80;2.43;;;8.70;99.90;;;;;;5013709;28;20620;-75
2021/01/22 11:12:46;;;;;;;8.47;3.00;;;9.00;99.90;;;;;;5014355;28;20230;-75
2021/01/22 11:15:12;;;;;;;5.27;2.50;;;9.30;99.90;;;;;;5014578;28;20422;-75
2021/01/22 11:17:37;;;;;;;3.90;2.50;;;9.50;99.90;;;;;;5016281;28;20461;-76
2021/01/22 11:20:04;;;;;;;12.57;3.30;;;9.70;99.90;;;;;;5015536;28;20188;-75
2021/01/22 11:22:30;;;;;;;2.60;2.23;;;9.40;99.90;;;;;;5015185;28;20204;-75
2021/01/22 11:24:57;;;;;;;6.70;3.30;;;9.40;99.90;;;;;;5016649;28;20446;-76
2021/01/22 11:27:22;;;;;;;7.80;3.03;;;9.40;99.90;;;;;;5016673;28;20441;-75
2021/01/22 11:29:48;;;;;;;3.83;3.00;;;9.30;99.90;;;;;;5015166;28;20569;-75
2021/01/22 11:32:14;;;;;;;5.83;2.80;;;9.20;99.90;;;;;;5015079;28;20199;-75
2021/01/22 11:34:39;;;;;;;4.90;2.90;;;9.00;99.90;;;;;;5016612;28;20168;-75
2021/01/22 11:37:05;;;;;;;2.93;2.57;;;8.60;99.90;;;;;;5014616;28;20177;-75
2021/01/22 11:39:32;;;;;;;3.53;2.40;;;8.50;99.90;;;;;;5014325;28;20179;-75
2021/01/22 11:41:58;;;;;;;5.33;2.97;;;8.50;99.90;;;;;;5016032;28;20592;-75
2021/01/22 11:44:23;;;;;;;3.23;2.63;;;8.60;99.90;;;;;;5015833;28;20453;-75
2021/01/22 11:46:49;;;;;;;3.37;2.57;;;8.50;99.90;;;;;;5014787;28;20184;-76
2021/01/22 11:49:14;;;;;;;5.03;2.90;;;8.60;99.90;;;;;;5014669;28;20220;-76
2021/01/22 11:51:40;;;;;;;3.93;2.20;;;8.80;99.90;;;;;;5015817;28;20196;-76
2021/01/22 11:54:06;;;;;;;4.13;2.57;;;9.00;99.90;;;;;;5014107;28;20176;-75
2021/01/22 11:56:32;;;;;;;2.97;2.60;;;8.90;99.90;;;;;;5012530;28;20259;-75
2021/01/22 11:58:58;;;;;;;10.23;2.63;;;8.80;99.90;;;;;;5012924;28;20176;-75
2021/01/22 12:01:24;;;;;;;3.10;2.80;;;8.50;99.90;;;;;;5012486;28;20454;-75
2021/01/22 12:03:51;;;;;;;6.00;2.67;;;8.60;99.90;;;;;;5013374;28;20175;-75
2021/01/22 12:06:16;;;;;;;4.17;2.90;;;8.50;99.90;;;;;;5013328;28;20407;-75
2021/01/22 12:08:42;;;;;;;7.00;2.77;;;8.60;99.90;;;;;;5013142;28;20427;-75
2021/01/22 12:11:08;;;;;;;9.43;3.00;;;8.40;99.90;;;;;;5011473;28;20192;-75
2021/01/22 12:13:33;;;;;;;4.00;2.70;;;8.30;99.90;;;;;;5013158;28;20192;-75
2021/01/22 12:15:59;;;;;;;3.70;2.50;;;8.10;99.90;;;;;;5014299;28;20172;-75
2021/01/22 12:18:25;;;;;;;9.53;2.80;;;8.10;99.90;;;;;;5012991;28;20161;-75
2021/01/22 12:20:51;;;;;;;3.60;2.60;;;8.10;99.90;;;;;;5012761;28;20557;-75
2021/01/22 12:23:16;;;;;;;5.67;2.80;;;8.30;99.90;;;;;;5012991;28;20164;-75
2021/01/22 12:25:45;;;;;;;5.20;3.07;;;8.40;99.90;;;;;;5028170;28;20410;-75
2021/01/22 12:28:15;;;;;;;6.20;3.20;;;8.40;99.90;;;;;;5028129;28;20519;-75
2021/01/22 12:30:41;;;;;;;5.43;2.93;;;8.30;99.90;;;;;;5010735;28;20906;-75
2021/01/22 12:33:07;;;;;;;10.07;3.17;;;8.60;99.90;;;;;;5012563;28;20513;-75
2021/01/22 12:35:32;;;;;;;3.23;2.60;;;8.60;99.90;;;;;;5011719;28;20468;-75
2021/01/22 12:37:58;;;;;;;8.13;3.03;;;8.50;99.90;;;;;;5012773;28;20198;-75
2021/01/22 12:40:25;;;;;;;5.53;2.70;;;8.70;99.90;;;;;;5011080;28;20191;-75
2021/01/22 12:42:51;;;;;;;3.97;2.70;;;8.90;99.90;;;;;;5012177;28;20426;-75
2021/01/22 12:45:18;;;;;;;6.90;3.30;;;9.10;99.90;;;;;;5012073;28;20417;-75
2021/01/22 12:47:44;;;;;;;6.40;4.00;;;9.20;99.90;;;;;;5012388;28;20429;-75
2021/01/22 12:50:10;;;;;;;6.00;3.70;;;9.40;99.90;;;;;;5012226;28;20819;-75
2021/01/22 12:52:36;;;;;;;3.60;2.83;;;9.60;99.90;;;;;;5012440;28;20490;-75
2021/01/22 12:55:02;;;;;;;9.03;2.93;;;9.80;99.90;;;;;;5012299;28;20483;-75
2021/01/22 12:57:27;;;;;;;5.50;3.30;;;9.60;99.90;;;;;;5012010;28;20638;-75